sensor_id;sensor_type;location;lat;lon;timestamp;P1;durP1;ratioP1;P2;durP2;ratioP2
23474;SDS011;11910;52.086;21.066;2023-05-15T00:01:21;7.55;;;5.20;;
23474;SDS011;11910;52.086;21.066;2023-05-15T00:03:47;11.82;;;5.40;;
23474;SDS011;11910;52.086;21.066;2023-05-15T00:06:13;7.75;;;5.35;;
23474;SDS011;11910;52.086;21.066;2023-05-15T00:08:38;6.28;;;5.30;;
23474;SDS011;11910;52.086;21.066;2023-05-15T00:11:04;10.48;;;5.43;;
23474;SDS011;11910;52.086;21.066;2023-05-15T00:13:30;6.35;;;4.75;;
23474;SDS011;11910;52.086;21.066;2023-05-15T00:15:56;8.60;;;5.20;;
23474;SDS011;11910;52.086;21.066;2023-05-15T00:18:21;7.93;;;4.78;;
23474;SDS011;11910;52.086;21.066;2023-05-15T00:20:47;6.13;;;4.63;;
23474;SDS011;11910;52.086;21.066;2023-05-15T00:23:13;8.93;;;4.47;;
23474;SDS011;11910;52.086;21.066;2023-05-15T00:25:38;8.35;;;5.07;;
23474;SDS011;11910;52.086;21.066;2023-05-15T00:28:04;13.00;;;4.78;;
23474;SDS011;11910;52.086;21.066;2023-05-15T00:30:30;6.78;;;4.50;;
23474;SDS011;11910;52.086;21.066;2023-05-15T00:32:55;6.20;;;4.60;;
23474;SDS011;11910;52.086;21.066;2023-05-15T00:35:21;5.90;;;4.60;;
23474;SDS011;11910;52.086;21.066;2023-05-15T00:37:47;5.13;;;4.40;;
23474;SDS011;11910;52.086;21.066;2023-05-15T00:40:14;7.30;;;4.53;;
23474;SDS011;11910;52.086;21.066;2023-05-15T00:42:45;5.75;;;4.50;;
23474;SDS011;11910;52.086;21.066;2023-05-15T00:45:11;8.20;;;4.28;;
23474;SDS011;11910;52.086;21.066;2023-05-15T00:47:38;7.32;;;4.70;;
23474;SDS011;11910;52.086;21.066;2023-05-15T00:50:05;8.20;;;5.05;;
23474;SDS011;11910;52.086;21.066;2023-05-15T00:52:35;8.60;;;4.80;;
23474;SDS011;11910;52.086;21.066;2023-05-15T00:55:02;10.45;;;4.50;;
23474;SDS011;11910;52.086;21.066;2023-05-15T00:57:28;6.18;;;4.97;;
23474;SDS011;11910;52.086;21.066;2023-05-15T00:59:55;7.22;;;4.25;;
23474;SDS011;11910;52.086;21.066;2023-05-15T01:02:22;6.65;;;4.50;;
23474;SDS011;11910;52.086;21.066;2023-05-15T01:04:48;6.28;;;4.70;;
23474;SDS011;11910;52.086;21.066;2023-05-15T01:07:14;10.35;;;4.88;;
23474;SDS011;11910;52.086;21.066;2023-05-15T01:09:43;10.82;;;4.80;;
23474;SDS011;11910;52.086;21.066;2023-05-15T01:12:11;7.22;;;4.70;;
23474;SDS011;11910;52.086;21.066;2023-05-15T01:14:40;6.72;;;4.20;;
23474;SDS011;11910;52.086;21.066;2023-05-15T01:17:06;8.70;;;3.55;;
23474;SDS011;11910;52.086;21.066;2023-05-15T01:19:32;6.00;;;3.45;;
23474;SDS011;11910;52.086;21.066;2023-05-15T01:32:51;5.13;;;3.22;;
23474;SDS011;11910;52.086;21.066;2023-05-15T01:35:27;7.15;;;3.40;;
23474;SDS011;11910;52.086;21.066;2023-05-15T01:41:19;6.35;;;3.10;;
23474;SDS011;11910;52.086;21.066;2023-05-15T01:43:51;4.20;;;3.20;;
23474;SDS011;11910;52.086;21.066;2023-05-15T01:46:24;4.68;;;3.20;;
23474;SDS011;11910;52.086;21.066;2023-05-15T01:48:53;6.50;;;3.35;;
23474;SDS011;11910;52.086;21.066;2023-05-15T01:51:22;5.57;;;3.13;;
23474;SDS011;11910;52.086;21.066;2023-05-15T01:53:50;4.55;;;2.95;;
23474;SDS011;11910;52.086;21.066;2023-05-15T01:56:17;6.03;;;3.22;;
23474;SDS011;11910;52.086;21.066;2023-05-15T01:58:47;7.15;;;3.28;;
23474;SDS011;11910;52.086;21.066;2023-05-15T02:01:13;5.72;;;3.20;;
23474;SDS011;11910;52.086;21.066;2023-05-15T02:03:41;5.95;;;3.10;;
23474;SDS011;11910;52.086;21.066;2023-05-15T02:06:08;4.57;;;3.30;;
23474;SDS011;11910;52.086;21.066;2023-05-15T02:08:35;6.05;;;3.15;;
23474;SDS011;11910;52.086;21.066;2023-05-15T02:11:01;4.22;;;3.30;;
23474;SDS011;11910;52.086;21.066;2023-05-15T02:13:28;5.95;;;3.35;;
23474;SDS011;11910;52.086;21.066;2023-05-15T02:15:55;4.55;;;3.42;;
23474;SDS011;11910;52.086;21.066;2023-05-15T02:18:21;4.43;;;3.28;;
23474;SDS011;11910;52.086;21.066;2023-05-15T02:20:47;4.95;;;2.92;;
23474;SDS011;11910;52.086;21.066;2023-05-15T02:23:13;12.65;;;3.30;;
23474;SDS011;11910;52.086;21.066;2023-05-15T02:25:49;6.25;;;3.50;;
23474;SDS011;11910;52.086;21.066;2023-05-15T02:28:40;6.45;;;3.25;;
23474;SDS011;11910;52.086;21.066;2023-05-15T02:31:16;6.68;;;3.53;;
23474;SDS011;11910;52.086;21.066;2023-05-15T02:36:26;7.47;;;3.42;;
23474;SDS011;11910;52.086;21.066;2023-05-15T02:38:57;5.95;;;3.35;;
23474;SDS011;11910;52.086;21.066;2023-05-15T02:41:26;4.15;;;3.42;;
23474;SDS011;11910;52.086;21.066;2023-05-15T02:43:53;8.45;;;3.13;;
23474;SDS011;11910;52.086;21.066;2023-05-15T02:46:20;4.53;;;3.10;;
23474;SDS011;11910;52.086;21.066;2023-05-15T02:48:48;6.63;;;3.47;;
23474;SDS011;11910;52.086;21.066;2023-05-15T02:51:15;3.97;;;3.58;;
23474;SDS011;11910;52.086;21.066;2023-05-15T02:53:41;5.78;;;3.10;;
23474;SDS011;11910;52.086;21.066;2023-05-15T02:56:07;5.50;;;3.47;;
23474;SDS011;11910;52.086;21.066;2023-05-15T02:58:36;4.20;;;3.20;;
23474;SDS011;11910;52.086;21.066;2023-05-15T03:01:03;6.38;;;3.42;;
23474;SDS011;11910;52.086;21.066;2023-05-15T03:03:29;6.90;;;3.30;;
23474;SDS011;11910;52.086;21.066;2023-05-15T03:05:55;5.47;;;3.22;;
23474;SDS011;11910;52.086;21.066;2023-05-15T03:08:20;5.10;;;3.45;;
23474;SDS011;11910;52.086;21.066;2023-05-15T03:10:46;7.03;;;3.50;;
23474;SDS011;11910;52.086;21.066;2023-05-15T03:13:12;4.70;;;3.10;;
23474;SDS011;11910;52.086;21.066;2023-05-15T03:15:42;6.78;;;3.67;;
23474;SDS011;11910;52.086;21.066;2023-05-15T03:18:09;4.13;;;3.30;;
23474;SDS011;11910;52.086;21.066;2023-05-15T03:20:34;6.38;;;3.17;;
23474;SDS011;11910;52.086;21.066;2023-05-15T03:23:00;4.20;;;3.40;;
23474;SDS011;11910;52.086;21.066;2023-05-15T03:25:26;6.57;;;3.50;;
23474;SDS011;11910;52.086;21.066;2023-05-15T03:27:52;3.80;;;3.30;;
23474;SDS011;11910;52.086;21.066;2023-05-15T03:30:17;7.85;;;3.45;;
23474;SDS011;11910;52.086;21.066;2023-05-15T03:32:43;9.00;;;3.50;;
23474;SDS011;11910;52.086;21.066;2023-05-15T03:35:09;5.45;;;3.13;;
23474;SDS011;11910;52.086;21.066;2023-05-15T03:37:34;4.93;;;3.35;;
23474;SDS011;11910;52.086;21.066;2023-05-15T03:40:00;4.68;;;3.20;;
23474;SDS011;11910;52.086;21.066;2023-05-15T03:42:26;5.45;;;3.40;;
23474;SDS011;11910;52.086;21.066;2023-05-15T03:44:52;6.35;;;3.50;;
23474;SDS011;11910;52.086;21.066;2023-05-15T03:47:17;5.40;;;3.42;;
23474;SDS011;11910;52.086;21.066;2023-05-15T03:49:44;17.17;;;4.72;;
23474;SDS011;11910;52.086;21.066;2023-05-15T03:52:10;7.93;;;4.30;;
23474;SDS011;11910;52.086;21.066;2023-05-15T03:54:36;8.40;;;3.97;;
23474;SDS011;11910;52.086;21.066;2023-05-15T03:57:02;8.00;;;3.90;;
23474;SDS011;11910;52.086;21.066;2023-05-15T03:59:28;6.07;;;3.33;;
23474;SDS011;11910;52.086;21.066;2023-05-15T04:01:55;7.40;;;3.60;;
23474;SDS011;11910;52.086;21.066;2023-05-15T04:04:20;8.07;;;3.80;;
23474;SDS011;11910;52.086;21.066;2023-05-15T04:06:46;7.47;;;3.72;;
23474;SDS011;11910;52.086;21.066;2023-05-15T04:09:11;6.45;;;3.72;;
23474;SDS011;11910;52.086;21.066;2023-05-15T04:11:37;9.40;;;3.85;;
23474;SDS011;11910;52.086;21.066;2023-05-15T04:14:03;7.63;;;3.72;;
23474;SDS011;11910;52.086;21.066;2023-05-15T04:16:29;6.80;;;3.53;;
23474;SDS011;11910;52.086;21.066;2023-05-15T04:18:54;7.22;;;3.50;;
23474;SDS011;11910;52.086;21.066;2023-05-15T04:21:20;8.07;;;3.80;;
23474;SDS011;11910;52.086;21.066;2023-05-15T04:23:46;7.32;;;3.63;;
23474;SDS011;11910;52.086;21.066;2023-05-15T04:26:11;7.00;;;3.83;;
23474;SDS011;11910;52.086;21.066;2023-05-15T04:28:37;8.63;;;3.95;;
23474;SDS011;11910;52.086;21.066;2023-05-15T04:31:02;8.25;;;3.83;;
23474;SDS011;11910;52.086;21.066;2023-05-15T04:33:28;5.18;;;3.70;;
23474;SDS011;11910;52.086;21.066;2023-05-15T04:35:54;5.28;;;3.72;;
23474;SDS011;11910;52.086;21.066;2023-05-15T04:38:20;4.82;;;3.53;;
23474;SDS011;11910;52.086;21.066;2023-05-15T04:40:46;7.25;;;3.88;;
23474;SDS011;11910;52.086;21.066;2023-05-15T04:43:11;9.10;;;4.28;;
23474;SDS011;11910;52.086;21.066;2023-05-15T04:45:37;4.93;;;3.30;;
23474;SDS011;11910;52.086;21.066;2023-05-15T04:48:03;8.60;;;3.65;;
23474;SDS011;11910;52.086;21.066;2023-05-15T04:50:29;7.82;;;3.90;;
23474;SDS011;11910;52.086;21.066;2023-05-15T04:52:54;9.25;;;3.78;;
23474;SDS011;11910;52.086;21.066;2023-05-15T04:55:20;5.97;;;3.78;;
23474;SDS011;11910;52.086;21.066;2023-05-15T04:57:46;4.85;;;3.72;;
23474;SDS011;11910;52.086;21.066;2023-05-15T05:00:12;4.82;;;3.53;;
23474;SDS011;11910;52.086;21.066;2023-05-15T05:02:39;4.28;;;3.70;;
23474;SDS011;11910;52.086;21.066;2023-05-15T05:05:05;4.78;;;3.70;;
23474;SDS011;11910;52.086;21.066;2023-05-15T05:07:31;6.72;;;3.90;;
23474;SDS011;11910;52.086;21.066;2023-05-15T05:09:58;7.25;;;4.00;;
23474;SDS011;11910;52.086;21.066;2023-05-15T05:12:23;11.70;;;3.90;;
23474;SDS011;11910;52.086;21.066;2023-05-15T05:14:49;6.45;;;3.95;;
23474;SDS011;11910;52.086;21.066;2023-05-15T05:17:14;9.75;;;3.50;;
23474;SDS011;11910;52.086;21.066;2023-05-15T05:19:40;13.27;;;4.25;;
23474;SDS011;11910;52.086;21.066;2023-05-15T05:22:06;8.60;;;3.70;;
23474;SDS011;11910;52.086;21.066;2023-05-15T05:24:32;5.13;;;3.65;;
23474;SDS011;11910;52.086;21.066;2023-05-15T05:27:01;15.32;;;4.32;;
23474;SDS011;11910;52.086;21.066;2023-05-15T05:29:30;11.65;;;3.72;;
23474;SDS011;11910;52.086;21.066;2023-05-15T05:31:56;8.10;;;3.60;;
23474;SDS011;11910;52.086;21.066;2023-05-15T05:34:22;9.05;;;4.00;;
23474;SDS011;11910;52.086;21.066;2023-05-15T05:36:48;8.45;;;4.18;;
23474;SDS011;11910;52.086;21.066;2023-05-15T05:39:14;12.73;;;4.65;;
23474;SDS011;11910;52.086;21.066;2023-05-15T05:41:40;10.02;;;4.60;;
23474;SDS011;11910;52.086;21.066;2023-05-15T05:44:06;7.20;;;4.30;;
23474;SDS011;11910;52.086;21.066;2023-05-15T05:46:32;7.03;;;4.38;;
23474;SDS011;11910;52.086;21.066;2023-05-15T05:48:58;7.90;;;3.83;;
23474;SDS011;11910;52.086;21.066;2023-05-15T05:51:24;6.63;;;4.30;;
23474;SDS011;11910;52.086;21.066;2023-05-15T05:53:49;7.97;;;4.35;;
23474;SDS011;11910;52.086;21.066;2023-05-15T05:56:15;9.05;;;4.38;;
23474;SDS011;11910;52.086;21.066;2023-05-15T05:58:40;7.28;;;4.30;;
23474;SDS011;11910;52.086;21.066;2023-05-15T06:01:06;10.77;;;4.72;;
23474;SDS011;11910;52.086;21.066;2023-05-15T06:03:33;9.93;;;4.43;;
23474;SDS011;11910;52.086;21.066;2023-05-15T06:05:59;5.68;;;4.55;;
23474;SDS011;11910;52.086;21.066;2023-05-15T06:08:24;8.95;;;4.43;;
23474;SDS011;11910;52.086;21.066;2023-05-15T06:10:50;8.07;;;4.47;;
23474;SDS011;11910;52.086;21.066;2023-05-15T06:13:16;8.27;;;4.88;;
23474;SDS011;11910;52.086;21.066;2023-05-15T06:15:42;7.78;;;4.50;;
23474;SDS011;11910;52.086;21.066;2023-05-15T06:18:07;6.68;;;5.10;;
23474;SDS011;11910;52.086;21.066;2023-05-15T06:20:33;8.32;;;5.78;;
23474;SDS011;11910;52.086;21.066;2023-05-15T06:22:58;10.27;;;5.85;;
23474;SDS011;11910;52.086;21.066;2023-05-15T06:25:24;8.75;;;5.78;;
23474;SDS011;11910;52.086;21.066;2023-05-15T06:27:50;8.30;;;6.18;;
23474;SDS011;11910;52.086;21.066;2023-05-15T06:30:15;9.70;;;5.85;;
23474;SDS011;11910;52.086;21.066;2023-05-15T06:32:41;8.18;;;6.00;;
23474;SDS011;11910;52.086;21.066;2023-05-15T06:35:07;8.57;;;5.88;;
23474;SDS011;11910;52.086;21.066;2023-05-15T06:37:35;7.78;;;5.80;;
23474;SDS011;11910;52.086;21.066;2023-05-15T06:40:01;10.05;;;6.63;;
23474;SDS011;11910;52.086;21.066;2023-05-15T06:42:28;13.68;;;7.15;;
23474;SDS011;11910;52.086;21.066;2023-05-15T06:44:54;12.02;;;7.70;;
23474;SDS011;11910;52.086;21.066;2023-05-15T06:47:19;12.05;;;8.32;;
23474;SDS011;11910;52.086;21.066;2023-05-15T06:49:48;10.00;;;7.28;;
23474;SDS011;11910;52.086;21.066;2023-05-15T06:52:13;12.77;;;8.73;;
23474;SDS011;11910;52.086;21.066;2023-05-15T06:54:39;13.43;;;8.57;;
23474;SDS011;11910;52.086;21.066;2023-05-15T06:57:05;14.02;;;8.43;;
23474;SDS011;11910;52.086;21.066;2023-05-15T06:59:31;12.90;;;8.20;;
23474;SDS011;11910;52.086;21.066;2023-05-15T07:02:02;14.32;;;8.88;;
23474;SDS011;11910;52.086;21.066;2023-05-15T07:04:28;15.52;;;9.38;;
23474;SDS011;11910;52.086;21.066;2023-05-15T07:06:55;13.65;;;9.95;;
23474;SDS011;11910;52.086;21.066;2023-05-15T07:09:23;13.88;;;9.63;;
23474;SDS011;11910;52.086;21.066;2023-05-15T07:11:49;19.05;;;10.68;;
23474;SDS011;11910;52.086;21.066;2023-05-15T07:14:14;17.52;;;11.80;;
23474;SDS011;11910;52.086;21.066;2023-05-15T07:16:40;15.68;;;10.57;;
23474;SDS011;11910;52.086;21.066;2023-05-15T07:19:09;15.27;;;11.27;;
23474;SDS011;11910;52.086;21.066;2023-05-15T07:21:35;15.38;;;11.60;;
23474;SDS011;11910;52.086;21.066;2023-05-15T07:24:02;12.57;;;11.23;;
23474;SDS011;11910;52.086;21.066;2023-05-15T07:26:29;14.38;;;11.90;;
23474;SDS011;11910;52.086;21.066;2023-05-15T07:28:56;14.25;;;10.07;;
23474;SDS011;11910;52.086;21.066;2023-05-15T07:31:22;13.98;;;11.40;;
23474;SDS011;11910;52.086;21.066;2023-05-15T07:33:50;15.52;;;11.43;;
23474;SDS011;11910;52.086;21.066;2023-05-15T07:36:16;17.35;;;10.07;;
23474;SDS011;11910;52.086;21.066;2023-05-15T07:38:42;14.35;;;9.15;;
23474;SDS011;11910;52.086;21.066;2023-05-15T07:41:07;11.60;;;10.38;;
23474;SDS011;11910;52.086;21.066;2023-05-15T07:43:33;12.63;;;11.35;;
23474;SDS011;11910;52.086;21.066;2023-05-15T07:45:59;11.30;;;10.15;;
23474;SDS011;11910;52.086;21.066;2023-05-15T07:48:25;12.00;;;10.80;;
23474;SDS011;11910;52.086;21.066;2023-05-15T07:50:50;11.45;;;10.25;;
23474;SDS011;11910;52.086;21.066;2023-05-15T07:53:17;13.43;;;10.70;;
23474;SDS011;11910;52.086;21.066;2023-05-15T07:55:43;12.55;;;11.25;;
23474;SDS011;11910;52.086;21.066;2023-05-15T07:58:09;14.02;;;11.07;;
23474;SDS011;11910;52.086;21.066;2023-05-15T08:00:35;12.30;;;10.10;;
23474;SDS011;11910;52.086;21.066;2023-05-15T08:03:02;18.60;;;16.85;;
23474;SDS011;11910;52.086;21.066;2023-05-15T08:05:28;12.73;;;11.30;;
23474;SDS011;11910;52.086;21.066;2023-05-15T08:07:54;13.77;;;11.55;;
23474;SDS011;11910;52.086;21.066;2023-05-15T08:10:20;13.35;;;9.90;;
23474;SDS011;11910;52.086;21.066;2023-05-15T08:12:46;14.80;;;10.98;;
23474;SDS011;11910;52.086;21.066;2023-05-15T08:15:12;10.88;;;9.02;;
23474;SDS011;11910;52.086;21.066;2023-05-15T08:17:39;12.80;;;10.10;;
23474;SDS011;11910;52.086;21.066;2023-05-15T08:20:05;11.57;;;10.35;;
23474;SDS011;11910;52.086;21.066;2023-05-15T08:22:31;13.48;;;10.50;;
23474;SDS011;11910;52.086;21.066;2023-05-15T08:24:57;14.45;;;11.10;;
23474;SDS011;11910;52.086;21.066;2023-05-15T08:27:24;14.23;;;10.93;;
23474;SDS011;11910;52.086;21.066;2023-05-15T08:29:50;13.25;;;10.85;;
23474;SDS011;11910;52.086;21.066;2023-05-15T08:32:16;15.00;;;10.43;;
23474;SDS011;11910;52.086;21.066;2023-05-15T08:34:43;11.95;;;9.85;;
23474;SDS011;11910;52.086;21.066;2023-05-15T08:37:09;12.73;;;10.60;;
23474;SDS011;11910;52.086;21.066;2023-05-15T08:39:34;16.23;;;11.23;;
23474;SDS011;11910;52.086;21.066;2023-05-15T08:42:04;11.40;;;10.40;;
23474;SDS011;11910;52.086;21.066;2023-05-15T08:44:32;13.88;;;12.57;;
23474;SDS011;11910;52.086;21.066;2023-05-15T08:46:58;13.43;;;12.05;;
23474;SDS011;11910;52.086;21.066;2023-05-15T08:52:28;15.45;;;13.82;;
23474;SDS011;11910;52.086;21.066;2023-05-15T08:54:54;18.00;;;15.20;;
23474;SDS011;11910;52.086;21.066;2023-05-15T08:57:20;18.98;;;16.52;;
23474;SDS011;11910;52.086;21.066;2023-05-15T08:59:47;23.08;;;18.05;;
23474;SDS011;11910;52.086;21.066;2023-05-15T09:02:13;19.45;;;16.92;;
23474;SDS011;11910;52.086;21.066;2023-05-15T09:04:40;17.88;;;15.23;;
23474;SDS011;11910;52.086;21.066;2023-05-15T09:07:07;44.55;;;19.58;;
23474;SDS011;11910;52.086;21.066;2023-05-15T09:09:34;24.73;;;17.73;;
23474;SDS011;11910;52.086;21.066;2023-05-15T09:12:00;23.80;;;19.85;;
23474;SDS011;11910;52.086;21.066;2023-05-15T09:14:27;30.30;;;20.77;;
23474;SDS011;11910;52.086;21.066;2023-05-15T09:16:53;25.10;;;20.65;;
23474;SDS011;11910;52.086;21.066;2023-05-15T09:19:19;23.60;;;20.73;;
23474;SDS011;11910;52.086;21.066;2023-05-15T09:21:47;29.92;;;23.83;;
23474;SDS011;11910;52.086;21.066;2023-05-15T09:24:19;26.30;;;22.48;;
23474;SDS011;11910;52.086;21.066;2023-05-15T09:27:08;28.20;;;23.83;;
23474;SDS011;11910;52.086;21.066;2023-05-15T09:29:34;30.77;;;24.60;;
23474;SDS011;11910;52.086;21.066;2023-05-15T09:32:03;25.27;;;22.67;;
23474;SDS011;11910;52.086;21.066;2023-05-15T09:34:31;27.23;;;23.42;;
23474;SDS011;11910;52.086;21.066;2023-05-15T09:36:59;26.42;;;20.48;;
23474;SDS011;11910;52.086;21.066;2023-05-15T09:39:26;53.92;;;26.35;;
23474;SDS011;11910;52.086;21.066;2023-05-15T09:41:52;26.35;;;23.65;;
23474;SDS011;11910;52.086;21.066;2023-05-15T09:44:19;24.27;;;21.77;;
23474;SDS011;11910;52.086;21.066;2023-05-15T09:46:49;25.52;;;22.65;;
23474;SDS011;11910;52.086;21.066;2023-05-15T09:49:15;28.48;;;23.83;;
23474;SDS011;11910;52.086;21.066;2023-05-15T09:51:42;34.47;;;25.20;;
23474;SDS011;11910;52.086;21.066;2023-05-15T09:54:14;26.83;;;22.58;;
23474;SDS011;11910;52.086;21.066;2023-05-15T09:56:42;28.48;;;22.35;;
23474;SDS011;11910;52.086;21.066;2023-05-15T09:59:13;22.80;;;20.45;;
23474;SDS011;11910;52.086;21.066;2023-05-15T10:01:43;25.88;;;22.77;;
23474;SDS011;11910;52.086;21.066;2023-05-15T10:04:10;48.55;;;36.88;;
23474;SDS011;11910;52.086;21.066;2023-05-15T10:06:38;33.75;;;26.60;;
23474;SDS011;11910;52.086;21.066;2023-05-15T10:09:09;21.45;;;19.15;;
23474;SDS011;11910;52.086;21.066;2023-05-15T10:11:37;22.90;;;19.55;;
23474;SDS011;11910;52.086;21.066;2023-05-15T10:14:05;24.77;;;22.17;;
23474;SDS011;11910;52.086;21.066;2023-05-15T10:16:33;82.38;;;44.30;;
23474;SDS011;11910;52.086;21.066;2023-05-15T10:19:04;57.58;;;38.45;;
23474;SDS011;11910;52.086;21.066;2023-05-15T10:21:38;34.38;;;30.02;;
23474;SDS011;11910;52.086;21.066;2023-05-15T10:24:05;31.90;;;28.57;;
23474;SDS011;11910;52.086;21.066;2023-05-15T10:26:34;27.02;;;24.10;;
23474;SDS011;11910;52.086;21.066;2023-05-15T10:29:08;25.70;;;22.80;;
23474;SDS011;11910;52.086;21.066;2023-05-15T10:31:35;28.00;;;24.23;;
23474;SDS011;11910;52.086;21.066;2023-05-15T10:34:02;23.88;;;21.42;;
23474;SDS011;11910;52.086;21.066;2023-05-15T10:36:28;29.02;;;24.15;;
23474;SDS011;11910;52.086;21.066;2023-05-15T10:38:56;30.60;;;27.30;;
23474;SDS011;11910;52.086;21.066;2023-05-15T10:41:26;30.35;;;26.88;;
23474;SDS011;11910;52.086;21.066;2023-05-15T10:43:56;34.65;;;30.48;;
23474;SDS011;11910;52.086;21.066;2023-05-15T10:46:23;28.50;;;24.83;;
23474;SDS011;11910;52.086;21.066;2023-05-15T10:48:50;37.53;;;27.98;;
23474;SDS011;11910;52.086;21.066;2023-05-15T10:51:16;33.30;;;28.40;;
23474;SDS011;11910;52.086;21.066;2023-05-15T10:53:47;34.88;;;29.15;;
23474;SDS011;11910;52.086;21.066;2023-05-15T10:56:14;39.30;;;31.88;;
23474;SDS011;11910;52.086;21.066;2023-05-15T10:58:44;35.40;;;29.55;;
23474;SDS011;11910;52.086;21.066;2023-05-15T11:01:32;29.55;;;25.80;;
23474;SDS011;11910;52.086;21.066;2023-05-15T11:04:06;31.90;;;27.70;;
23474;SDS011;11910;52.086;21.066;2023-05-15T11:06:34;40.00;;;33.50;;
23474;SDS011;11910;52.086;21.066;2023-05-15T11:14:19;38.97;;;29.52;;
23474;SDS011;11910;52.086;21.066;2023-05-15T11:22:22;33.42;;;28.23;;
23474;SDS011;11910;52.086;21.066;2023-05-15T11:24:53;40.03;;;32.53;;
23474;SDS011;11910;52.086;21.066;2023-05-15T11:27:30;75.78;;;44.70;;
23474;SDS011;11910;52.086;21.066;2023-05-15T11:30:03;54.90;;;36.67;;
23474;SDS011;11910;52.086;21.066;2023-05-15T11:35:26;42.10;;;32.85;;
23474;SDS011;11910;52.086;21.066;2023-05-15T11:37:58;32.83;;;29.25;;
23474;SDS011;11910;52.086;21.066;2023-05-15T11:40:31;32.72;;;27.83;;
23474;SDS011;11910;52.086;21.066;2023-05-15T11:43:17;35.10;;;29.60;;
23474;SDS011;11910;52.086;21.066;2023-05-15T11:45:52;30.95;;;27.10;;
23474;SDS011;11910;52.086;21.066;2023-05-15T11:48:20;42.70;;;30.02;;
23474;SDS011;11910;52.086;21.066;2023-05-15T11:50:47;33.00;;;28.60;;
23474;SDS011;11910;52.086;21.066;2023-05-15T11:53:13;31.35;;;26.90;;
23474;SDS011;11910;52.086;21.066;2023-05-15T11:55:40;34.42;;;28.58;;
23474;SDS011;11910;52.086;21.066;2023-05-15T11:58:14;36.97;;;29.33;;
23474;SDS011;11910;52.086;21.066;2023-05-15T12:00:41;44.15;;;33.75;;
23474;SDS011;11910;52.086;21.066;2023-05-15T12:03:30;39.58;;;30.95;;
23474;SDS011;11910;52.086;21.066;2023-05-15T12:05:57;40.38;;;32.17;;
23474;SDS011;11910;52.086;21.066;2023-05-15T12:08:25;41.08;;;34.53;;
23474;SDS011;11910;52.086;21.066;2023-05-15T12:10:57;36.95;;;32.17;;
23474;SDS011;11910;52.086;21.066;2023-05-15T12:13:23;32.83;;;28.77;;
23474;SDS011;11910;52.086;21.066;2023-05-15T12:15:49;35.72;;;30.92;;
23474;SDS011;11910;52.086;21.066;2023-05-15T12:18:15;35.53;;;31.70;;
23474;SDS011;11910;52.086;21.066;2023-05-15T12:20:41;42.80;;;34.00;;
23474;SDS011;11910;52.086;21.066;2023-05-15T12:23:13;48.67;;;37.90;;
23474;SDS011;11910;52.086;21.066;2023-05-15T12:25:39;36.03;;;32.05;;
23474;SDS011;11910;52.086;21.066;2023-05-15T12:28:07;43.03;;;35.15;;
23474;SDS011;11910;52.086;21.066;2023-05-15T12:30:33;37.67;;;33.13;;
23474;SDS011;11910;52.086;21.066;2023-05-15T12:33:01;38.72;;;33.58;;
23474;SDS011;11910;52.086;21.066;2023-05-15T12:35:31;34.90;;;31.20;;
23474;SDS011;11910;52.086;21.066;2023-05-15T12:37:59;34.08;;;30.50;;
23474;SDS011;11910;52.086;21.066;2023-05-15T12:40:26;49.78;;;36.85;;
23474;SDS011;11910;52.086;21.066;2023-05-15T12:42:52;33.13;;;29.67;;
23474;SDS011;11910;52.086;21.066;2023-05-15T12:45:19;47.28;;;38.42;;
23474;SDS011;11910;52.086;21.066;2023-05-15T12:47:46;42.28;;;35.83;;
23474;SDS011;11910;52.086;21.066;2023-05-15T12:50:15;36.15;;;32.25;;
23474;SDS011;11910;52.086;21.066;2023-05-15T12:55:20;35.22;;;31.73;;
23474;SDS011;11910;52.086;21.066;2023-05-15T12:57:56;36.25;;;32.45;;
23474;SDS011;11910;52.086;21.066;2023-05-15T13:00:23;38.13;;;34.08;;
23474;SDS011;11910;52.086;21.066;2023-05-15T13:02:53;38.58;;;34.65;;
23474;SDS011;11910;52.086;21.066;2023-05-15T13:05:26;49.35;;;40.63;;
23474;SDS011;11910;52.086;21.066;2023-05-15T13:07:53;42.97;;;36.17;;
23474;SDS011;11910;52.086;21.066;2023-05-15T13:10:22;38.20;;;34.03;;
23474;SDS011;11910;52.086;21.066;2023-05-15T13:12:49;37.28;;;33.33;;
23474;SDS011;11910;52.086;21.066;2023-05-15T13:15:32;35.50;;;31.70;;
23474;SDS011;11910;52.086;21.066;2023-05-15T13:18:06;33.58;;;29.77;;
23474;SDS011;11910;52.086;21.066;2023-05-15T13:20:40;34.83;;;31.33;;
23474;SDS011;11910;52.086;21.066;2023-05-15T13:23:17;36.83;;;32.97;;
23474;SDS011;11910;52.086;21.066;2023-05-15T13:25:49;34.33;;;30.73;;
23474;SDS011;11910;52.086;21.066;2023-05-15T13:28:14;35.13;;;31.38;;
23474;SDS011;11910;52.086;21.066;2023-05-15T13:30:40;33.35;;;29.88;;
23474;SDS011;11910;52.086;21.066;2023-05-15T13:33:06;35.65;;;29.77;;
23474;SDS011;11910;52.086;21.066;2023-05-15T13:35:34;35.72;;;31.88;;
23474;SDS011;11910;52.086;21.066;2023-05-15T13:38:00;32.78;;;29.45;;
23474;SDS011;11910;52.086;21.066;2023-05-15T13:40:26;33.40;;;29.90;;
23474;SDS011;11910;52.086;21.066;2023-05-15T13:42:52;33.88;;;30.27;;
23474;SDS011;11910;52.086;21.066;2023-05-15T13:45:17;32.78;;;29.38;;
23474;SDS011;11910;52.086;21.066;2023-05-15T13:47:43;27.80;;;24.92;;
23474;SDS011;11910;52.086;21.066;2023-05-15T13:50:11;28.73;;;25.95;;
23474;SDS011;11910;52.086;21.066;2023-05-15T13:52:38;29.30;;;26.40;;
23474;SDS011;11910;52.086;21.066;2023-05-15T13:55:05;26.45;;;23.75;;
23474;SDS011;11910;52.086;21.066;2023-05-15T13:57:33;30.52;;;27.30;;
23474;SDS011;11910;52.086;21.066;2023-05-15T14:00:00;24.63;;;22.15;;
23474;SDS011;11910;52.086;21.066;2023-05-15T14:02:25;37.80;;;34.10;;
23474;SDS011;11910;52.086;21.066;2023-05-15T14:04:51;24.63;;;21.60;;
23474;SDS011;11910;52.086;21.066;2023-05-15T14:07:17;24.15;;;21.73;;
23474;SDS011;11910;52.086;21.066;2023-05-15T14:09:43;29.13;;;26.02;;
23474;SDS011;11910;52.086;21.066;2023-05-15T14:12:09;24.85;;;22.45;;
23474;SDS011;11910;52.086;21.066;2023-05-15T14:14:35;22.60;;;20.27;;
23474;SDS011;11910;52.086;21.066;2023-05-15T14:17:01;31.35;;;28.35;;
23474;SDS011;11910;52.086;21.066;2023-05-15T14:19:27;24.17;;;21.88;;
23474;SDS011;11910;52.086;21.066;2023-05-15T14:21:52;23.83;;;21.63;;
23474;SDS011;11910;52.086;21.066;2023-05-15T14:24:18;21.98;;;19.83;;
23474;SDS011;11910;52.086;21.066;2023-05-15T14:26:44;22.55;;;20.35;;
23474;SDS011;11910;52.086;21.066;2023-05-15T14:29:10;21.50;;;19.27;;
23474;SDS011;11910;52.086;21.066;2023-05-15T14:31:36;22.92;;;20.52;;
23474;SDS011;11910;52.086;21.066;2023-05-15T14:34:02;22.42;;;20.17;;
23474;SDS011;11910;52.086;21.066;2023-05-15T14:36:29;23.10;;;20.77;;
23474;SDS011;11910;52.086;21.066;2023-05-15T14:38:55;24.65;;;22.17;;
23474;SDS011;11910;52.086;21.066;2023-05-15T14:41:20;23.67;;;21.35;;
23474;SDS011;11910;52.086;21.066;2023-05-15T14:43:46;24.05;;;21.48;;
23474;SDS011;11910;52.086;21.066;2023-05-15T14:46:11;22.60;;;20.25;;
23474;SDS011;11910;52.086;21.066;2023-05-15T14:48:37;21.85;;;19.45;;
23474;SDS011;11910;52.086;21.066;2023-05-15T14:51:02;21.30;;;19.30;;
23474;SDS011;11910;52.086;21.066;2023-05-15T14:53:28;327.08;;;138.93;;
23474;SDS011;11910;52.086;21.066;2023-05-15T14:55:54;25.27;;;22.67;;
23474;SDS011;11910;52.086;21.066;2023-05-15T14:58:20;25.60;;;22.90;;